KIGQ

Lansing Municipal Airport

Chicago, Illinois, USA
METAR KIGQ 220515Z AUTO 04007KT 10SM OVC026 18/18 A2976 RMK AO2 T01760176
Observed Flight Rules
Jun-22 @ 05:15 UTC (23 minutes ago) Marginal Visual Flight Rules
Wind Visibility Clouds
40° at 7 knots 10 miles
  • Overcast at 2,600' AGL
Temperatures Readings
Current 18°C / 64°F
Dewpoint 18°C / 64°F
Humidity 100%
Altimeter 29.76" Hg
Pressure 1008 hPa
Elevation 188
METAR KIGQ 220515Z AUTO 04007KT 10SM OVC026 18/18 A2976 RMK AO2 T01760176
Observed Flight Rules
Jun-22 @ 05:15 UTC
(23 minutes ago)
MVFR
Wind Visibility
40° at 7 knots 10 miles
Clouds
  • Overcast at 2,600' AGL
Temperature Dewpoint
18°C / 64°F 18°C / 64°F
Humidity Altimeter Pressure
100% 29.76" Hg 1008 hPa